Decoded Metar for GMFK (ER-RACHIDIA in MOROCCO) (IATA:ERH) | Meteo·Mobile Aviation Weather
aviador You're here:

GMFK Decoded Metar

ER-RACHIDIA in MOROCCO
Report Time2018-09-19 14:00:00
UTC Time2018-09-19 14:53:14
Flight Rules vfr VFR
Wind110° at 03 kt
W.Decomp.*RWY 13: 2.9 kt HW 0.9 kt LCW
W.Rank110° ranks 19
Current wind is below 110° avg. (5.9)
Visibility9999 m
Phenomena:N/A
Clouds:Few 026 Hf
Expected CloudBase > 7,600 ft AGL from Temp-Dew spread
CeilingNone
Temp29°C (ISA +21)
Dew Point10°C (31% RH)
Heat Index27.9°C
AAT28.0°C
QNH1023 hPa
Density Alt5,636 ft
Elevation3,428 ft
Report Wrong Elevation
Raw Report
METAR GMFK 191400Z 11003KT 9999 FEW026 29/10 Q1023 NOSIG=

Extra information for GMFK:More info

Metar Taf Metar & Taf Last 4 Metars F.Rules Stats Wind Profile Meteogram Temp Stats Airport Information Weather charts Add Link Nearby VenuesMetar ALERT Operation Metar Decoded Social comments